createdAt,value
2018-12-19T00:02:22.837Z,17.90
2018-12-19T00:04:51.280Z,18.33
2018-12-19T00:07:19.759Z,16.60
2018-12-19T00:09:48.215Z,15.53
2018-12-19T00:12:16.668Z,15.67
2018-12-19T00:14:45.140Z,16.17
2018-12-19T00:17:13.645Z,16.47
2018-12-19T00:19:42.082Z,16.70
2018-12-19T00:22:10.535Z,17.27
2018-12-19T00:24:38.967Z,17.47
2018-12-19T00:27:07.397Z,16.90
2018-12-19T00:29:35.851Z,17.53
2018-12-19T00:32:04.291Z,17.93
2018-12-19T00:34:32.740Z,15.90
2018-12-19T00:37:01.193Z,16.83
2018-12-19T00:39:29.660Z,16.87
2018-12-19T00:41:58.108Z,17.33
2018-12-19T00:44:26.571Z,16.33
2018-12-19T00:46:54.979Z,15.83
2018-12-19T00:49:23.437Z,14.60
2018-12-19T00:51:51.858Z,14.43
2018-12-19T00:54:20.312Z,12.90
2018-12-19T00:56:48.747Z,13.47
2018-12-19T00:59:17.189Z,14.13
2018-12-19T01:01:45.611Z,13.87
2018-12-19T01:04:14.079Z,13.07
2018-12-19T01:06:42.524Z,13.37
2018-12-19T01:09:15.855Z,12.80
2018-12-19T01:13:10.582Z,12.43
2018-12-19T01:15:39.047Z,11.33
2018-12-19T01:18:07.508Z,11.60
2018-12-19T01:20:35.944Z,11.17
2018-12-19T01:23:04.412Z,11.93
2018-12-19T01:25:32.855Z,12.20
2018-12-19T01:28:01.322Z,12.47
2018-12-19T01:30:29.757Z,11.87
2018-12-19T01:32:58.205Z,11.63
2018-12-19T01:35:26.632Z,11.43
2018-12-19T01:37:55.083Z,11.10
2018-12-19T01:40:23.512Z,11.33
2018-12-19T01:42:51.967Z,11.77
2018-12-19T01:45:20.392Z,10.73
2018-12-19T01:47:49.186Z,11.07
2018-12-19T01:50:17.638Z,11.80
2018-12-19T01:52:46.090Z,10.70
2018-12-19T01:55:14.633Z,10.70
2018-12-19T01:57:43.188Z,10.23
2018-12-19T02:00:11.591Z,10.77
2018-12-19T02:02:40.027Z,12.03
2018-12-19T02:05:08.500Z,11.27
2018-12-19T02:07:36.934Z,10.00
2018-12-19T02:10:05.947Z,10.27
2018-12-19T02:12:34.400Z,10.43
2018-12-19T02:15:02.902Z,10.00
2018-12-19T02:17:31.332Z,10.17
2018-12-19T02:19:59.787Z,10.17
2018-12-19T02:22:28.216Z,10.53
2018-12-19T02:24:56.654Z,11.00
2018-12-19T02:27:25.075Z,10.77
2018-12-19T02:29:53.655Z,12.10
2018-12-19T02:32:22.079Z,14.43
2018-12-19T02:34:50.539Z,12.50
2018-12-19T02:37:19.001Z,11.97
2018-12-19T02:39:47.478Z,13.47
2018-12-19T02:42:15.933Z,13.23
2018-12-19T02:44:44.413Z,12.33
2018-12-19T02:47:12.847Z,13.37
2018-12-19T02:49:41.312Z,12.97
2018-12-19T02:52:09.755Z,13.03
2018-12-19T02:54:38.208Z,12.47
2018-12-19T02:57:06.627Z,12.87
2018-12-19T02:59:35.094Z,13.13
2018-12-19T03:02:03.611Z,12.27
2018-12-19T03:04:32.069Z,12.47
2018-12-19T03:07:00.522Z,12.47
2018-12-19T03:09:28.968Z,11.57
2018-12-19T03:11:57.411Z,12.03
2018-12-19T03:14:25.900Z,11.63
2018-12-19T03:16:54.338Z,11.90
2018-12-19T03:19:22.827Z,11.07
2018-12-19T03:21:51.252Z,11.50
2018-12-19T03:24:19.707Z,11.77
2018-12-19T03:26:48.186Z,12.40
2018-12-19T03:29:16.656Z,13.03
2018-12-19T03:31:45.089Z,12.63
2018-12-19T03:34:13.543Z,11.97
2018-12-19T03:36:41.992Z,11.50
2018-12-19T03:39:10.569Z,12.37
2018-12-19T03:41:38.994Z,12.03
2018-12-19T03:44:07.455Z,12.83
2018-12-19T03:46:35.901Z,11.70
2018-12-19T03:49:04.492Z,12.97
2018-12-19T03:51:32.903Z,13.53
2018-12-19T03:54:01.382Z,14.40
2018-12-19T03:56:29.799Z,14.00
2018-12-19T03:58:58.271Z,13.47
2018-12-19T04:01:26.756Z,13.97
2018-12-19T04:03:55.237Z,13.87
2018-12-19T04:06:23.644Z,12.57
2018-12-19T04:08:52.124Z,12.57
2018-12-19T04:11:20.561Z,12.13
2018-12-19T04:13:49.037Z,12.33
2018-12-19T04:16:17.465Z,12.67
2018-12-19T04:18:45.912Z,12.03
2018-12-19T04:21:14.339Z,10.63
2018-12-19T04:23:42.768Z,9.83
2018-12-19T04:26:11.225Z,9.90
2018-12-19T04:28:39.663Z,10.23
2018-12-19T04:31:08.117Z,10.53
2018-12-19T04:33:36.537Z,10.70
2018-12-19T04:36:05.543Z,10.50
2018-12-19T04:38:34.095Z,10.53
2018-12-19T04:41:02.561Z,11.13
2018-12-19T04:43:30.983Z,11.03
2018-12-19T04:45:59.447Z,10.67
2018-12-19T04:48:27.888Z,10.20
2018-12-19T04:50:56.337Z,10.83
2018-12-19T04:53:24.774Z,11.50
2018-12-19T04:55:53.254Z,13.00
2018-12-19T04:58:21.748Z,11.43
2018-12-19T05:00:50.210Z,11.03
2018-12-19T05:03:18.638Z,10.20
2018-12-19T05:05:47.100Z,10.00
2018-12-19T05:08:15.639Z,9.27
2018-12-19T05:10:44.099Z,10.63
2018-12-19T05:13:12.639Z,12.83
2018-12-19T05:15:41.120Z,11.60
2018-12-19T05:18:09.547Z,10.90
2018-12-19T05:20:38.000Z,10.13
2018-12-19T05:23:06.423Z,9.50
2018-12-19T05:25:34.867Z,9.30
2018-12-19T05:28:03.294Z,10.40
2018-12-19T05:30:31.744Z,10.40
2018-12-19T05:33:00.195Z,10.17
2018-12-19T05:35:28.663Z,10.20
2018-12-19T05:37:57.143Z,9.67
2018-12-19T05:40:25.594Z,10.97
2018-12-19T05:42:54.028Z,9.80
2018-12-19T05:45:22.479Z,10.27
2018-12-19T05:47:51.032Z,11.20
2018-12-19T05:50:22.015Z,9.77
2018-12-19T05:52:50.435Z,10.00
2018-12-19T05:55:18.878Z,9.60
2018-12-19T05:57:47.299Z,10.97
2018-12-19T06:00:15.771Z,10.70
2018-12-19T06:02:44.224Z,10.03
2018-12-19T06:05:12.673Z,10.47
2018-12-19T06:07:41.095Z,11.63
2018-12-19T06:10:09.699Z,11.13
2018-12-19T06:12:38.131Z,11.53
2018-12-19T06:15:06.866Z,11.83
2018-12-19T06:17:35.311Z,12.20
2018-12-19T06:20:04.368Z,12.40
2018-12-19T06:22:32.817Z,14.13
2018-12-19T06:25:01.299Z,14.80
2018-12-19T06:27:29.756Z,14.67
2018-12-19T06:31:22.740Z,14.70
2018-12-19T06:33:51.416Z,14.37
2018-12-19T06:36:19.862Z,14.83
2018-12-19T06:38:48.372Z,13.67
2018-12-19T06:41:17.237Z,14.37
2018-12-19T06:43:46.559Z,15.20
2018-12-19T06:46:15.056Z,15.40
2018-12-19T06:48:43.489Z,15.90
2018-12-19T06:51:11.971Z,15.37
2018-12-19T06:53:40.630Z,16.23
2018-12-19T06:56:09.111Z,15.47
2018-12-19T06:58:37.547Z,15.97
2018-12-19T07:08:00.939Z,15.80
2018-12-19T07:10:29.535Z,22.97
2018-12-19T07:12:58.027Z,17.50
2018-12-19T07:15:26.563Z,15.10
2018-12-19T07:17:55.127Z,16.23
2018-12-19T07:20:23.764Z,17.13
2018-12-19T07:22:52.211Z,23.47
2018-12-19T07:25:20.747Z,19.77
2018-12-19T07:27:49.192Z,17.20
2018-12-19T07:30:17.839Z,17.53
2018-12-19T07:32:46.287Z,17.13
2018-12-19T07:35:14.837Z,17.23
2018-12-19T07:37:43.431Z,17.07
2018-12-19T07:40:11.884Z,17.43
2018-12-19T07:42:40.333Z,16.93
2018-12-19T07:45:08.809Z,16.80
2018-12-19T07:47:37.263Z,17.80
2018-12-19T07:52:58.769Z,18.53
2018-12-19T07:55:29.342Z,19.00
2018-12-19T07:57:57.833Z,19.20
2018-12-19T08:00:27.562Z,19.33
2018-12-19T08:02:56.271Z,19.60
2018-12-19T08:05:26.324Z,20.13
2018-12-19T08:07:55.086Z,20.80
2018-12-19T08:10:23.608Z,21.07
2018-12-19T08:12:52.028Z,19.33
2018-12-19T08:15:20.543Z,21.13
2018-12-19T08:17:48.975Z,20.93
2018-12-19T08:20:17.440Z,20.17
2018-12-19T08:22:45.876Z,21.53
2018-12-19T08:25:14.339Z,21.83
2018-12-19T08:27:42.871Z,21.70
2018-12-19T08:30:11.467Z,21.93
2018-12-19T08:32:39.916Z,21.40
2018-12-19T08:35:08.459Z,22.27
2018-12-19T08:37:36.906Z,22.70
2018-12-19T08:40:06.244Z,22.87
2018-12-19T08:42:34.688Z,23.27
2018-12-19T08:45:03.127Z,22.50
2018-12-19T08:47:31.943Z,22.47
2018-12-19T08:50:00.360Z,21.60
2018-12-19T08:52:28.803Z,23.03
2018-12-19T08:54:57.220Z,22.83
2018-12-19T08:57:25.667Z,22.70
2018-12-19T08:59:54.072Z,22.47
2018-12-19T09:02:22.619Z,23.43
2018-12-19T09:04:51.045Z,23.17
2018-12-19T09:10:14.000Z,23.97
2018-12-19T09:12:42.495Z,24.40
2018-12-19T09:15:10.959Z,25.50
2018-12-19T09:17:39.412Z,24.27
2018-12-19T09:20:08.519Z,24.17
2018-12-19T09:22:37.134Z,24.30
2018-12-19T09:25:05.824Z,24.67
2018-12-19T09:27:34.280Z,24.20
2018-12-19T09:30:02.747Z,24.53
2018-12-19T09:32:31.233Z,24.10
2018-12-19T09:34:59.671Z,24.30
2018-12-19T09:37:28.180Z,23.43
2018-12-19T09:39:56.604Z,24.80
2018-12-19T09:42:25.068Z,22.80
2018-12-19T09:44:53.514Z,23.53
2018-12-19T09:47:21.980Z,22.23
2018-12-19T09:49:50.420Z,20.33
2018-12-19T09:52:18.905Z,22.87
2018-12-19T09:54:47.384Z,23.20
2018-12-19T09:57:15.852Z,22.17
2018-12-19T09:59:44.268Z,22.20
2018-12-19T10:02:13.257Z,24.50
2018-12-19T10:04:41.679Z,23.97
2018-12-19T10:07:10.142Z,23.77
2018-12-19T10:09:38.741Z,22.37
2018-12-19T10:12:07.328Z,22.57
2018-12-19T10:14:35.776Z,21.67
2018-12-19T10:17:04.426Z,22.53
2018-12-19T10:19:32.931Z,22.47
2018-12-19T10:22:01.437Z,21.03
2018-12-19T10:24:35.067Z,22.70
2018-12-19T10:27:03.719Z,22.13
2018-12-19T10:29:32.207Z,23.17
2018-12-19T10:32:00.813Z,21.63
2018-12-19T10:34:29.253Z,23.93
2018-12-19T10:36:59.160Z,23.33
2018-12-19T10:39:27.904Z,23.80
2018-12-19T10:41:56.352Z,23.97
2018-12-19T10:44:24.790Z,23.53
2018-12-19T10:46:53.251Z,24.80
2018-12-19T10:49:21.676Z,24.23
2018-12-19T10:51:50.129Z,24.70
2018-12-19T10:54:18.569Z,24.37
2018-12-19T10:56:47.003Z,24.50
2018-12-19T10:59:15.480Z,24.97
2018-12-19T11:01:43.916Z,24.50
2018-12-19T11:04:12.377Z,25.23
2018-12-19T11:06:40.801Z,25.57
2018-12-19T11:09:09.396Z,24.70
2018-12-19T11:11:37.841Z,24.93
2018-12-19T11:14:06.345Z,24.67
2018-12-19T11:16:34.779Z,25.87
2018-12-19T11:19:03.259Z,25.37
2018-12-19T11:21:31.708Z,25.80
2018-12-19T11:24:00.299Z,27.00
2018-12-19T11:26:28.867Z,23.93
2018-12-19T11:28:57.327Z,25.43
2018-12-19T11:31:26.253Z,24.57
2018-12-19T11:33:54.724Z,26.57
2018-12-19T11:36:23.180Z,26.40
2018-12-19T11:38:51.648Z,26.37
2018-12-19T11:41:20.093Z,25.37
2018-12-19T11:43:48.549Z,26.30
2018-12-19T11:46:17.000Z,26.87
2018-12-19T11:48:45.468Z,25.60
2018-12-19T11:51:14.039Z,26.70
2018-12-19T11:53:42.539Z,26.73
2018-12-19T11:56:10.980Z,26.57
2018-12-19T11:58:39.454Z,24.77
2018-12-19T12:01:07.911Z,26.23
2018-12-19T12:03:36.423Z,23.63
2018-12-19T12:06:04.914Z,27.20
2018-12-19T12:08:33.384Z,32.77
2018-12-19T12:11:01.829Z,27.30
2018-12-19T12:13:30.290Z,30.53
2018-12-19T12:15:58.766Z,33.53
2018-12-19T12:18:27.229Z,27.40
2018-12-19T12:20:55.675Z,27.23
2018-12-19T12:23:24.147Z,24.83
2018-12-19T12:25:52.732Z,24.00
2018-12-19T12:28:21.192Z,23.97
2018-12-19T12:30:49.637Z,23.70
2018-12-19T12:33:18.100Z,24.70
2018-12-19T12:35:46.659Z,25.30
2018-12-19T12:38:15.119Z,25.17
2018-12-19T12:40:43.559Z,25.67
2018-12-19T12:43:12.041Z,25.60
2018-12-19T12:45:40.491Z,25.23
2018-12-19T12:48:08.971Z,26.40
2018-12-19T12:50:37.412Z,26.07
2018-12-19T12:53:05.889Z,26.20
2018-12-19T12:55:34.340Z,25.67
2018-12-19T12:58:02.788Z,25.03
2018-12-19T13:00:31.251Z,25.93
2018-12-19T13:02:59.725Z,25.63
2018-12-19T13:05:28.168Z,27.17
2018-12-19T13:07:56.639Z,27.27
2018-12-19T13:10:26.689Z,26.67
2018-12-19T13:12:55.272Z,26.17
2018-12-19T13:15:29.047Z,25.53
2018-12-19T13:17:57.932Z,24.97
2018-12-19T13:20:26.460Z,24.77
2018-12-19T13:22:54.927Z,25.27
2018-12-19T13:25:23.386Z,24.43
2018-12-19T13:27:52.138Z,24.73
2018-12-19T13:30:20.576Z,23.90
2018-12-19T13:32:49.011Z,24.13
2018-12-19T13:35:17.492Z,24.10
2018-12-19T13:37:45.932Z,22.97
2018-12-19T13:40:14.386Z,22.43
2018-12-19T13:42:42.822Z,21.97
2018-12-19T13:45:11.300Z,23.30
2018-12-19T13:47:39.720Z,22.70
2018-12-19T13:50:08.777Z,21.97
2018-12-19T13:52:37.199Z,22.50
2018-12-19T13:55:06.163Z,31.40
2018-12-19T13:57:34.699Z,25.20
2018-12-19T14:00:03.669Z,22.70
2018-12-19T14:02:32.087Z,22.23
2018-12-19T14:05:00.540Z,21.80
2018-12-19T14:07:28.963Z,22.47
2018-12-19T14:09:57.444Z,21.53
2018-12-19T14:12:25.890Z,21.73
2018-12-19T14:14:54.375Z,20.73
2018-12-19T14:17:22.819Z,21.60
2018-12-19T14:19:51.272Z,21.47
2018-12-19T14:22:19.713Z,19.87
2018-12-19T14:24:48.188Z,20.27
2018-12-19T14:27:16.636Z,33.20
2018-12-19T14:29:45.095Z,27.47
2018-12-19T14:32:13.551Z,24.00
2018-12-19T14:34:42.025Z,21.37
2018-12-19T14:37:10.455Z,20.67
2018-12-19T14:39:38.914Z,22.23
2018-12-19T14:44:42.195Z,20.00
2018-12-19T14:47:11.467Z,21.10
2018-12-19T14:49:39.939Z,20.00
2018-12-19T14:52:13.844Z,20.20
2018-12-19T14:54:42.311Z,33.43
2018-12-19T14:57:10.743Z,27.77
2018-12-19T14:59:39.200Z,37.63
2018-12-19T15:02:07.653Z,26.80
2018-12-19T15:04:36.134Z,24.03
2018-12-19T15:07:04.709Z,30.20
2018-12-19T15:09:33.161Z,24.67
2018-12-19T15:12:01.744Z,26.37
2018-12-19T15:14:30.348Z,31.73
2018-12-19T15:16:58.940Z,26.53
2018-12-19T15:19:27.410Z,35.20
2018-12-19T15:21:55.830Z,26.07
2018-12-19T15:27:17.543Z,25.07
2018-12-19T15:29:45.983Z,27.50
2018-12-19T15:32:14.399Z,25.93
2018-12-19T15:37:49.071Z,23.77
2018-12-19T15:46:02.880Z,39.23
2018-12-19T15:51:24.227Z,23.10
2018-12-19T15:53:52.752Z,26.27
2018-12-19T15:56:21.184Z,25.10
2018-12-19T15:58:49.644Z,26.07
2018-12-19T16:01:18.064Z,25.93
2018-12-19T16:03:46.487Z,25.37
2018-12-19T16:09:08.099Z,24.83
2018-12-19T16:11:36.542Z,25.13
2018-12-19T16:14:05.191Z,26.60
2018-12-19T16:16:33.615Z,26.93
2018-12-19T16:19:02.083Z,25.13
2018-12-19T16:21:30.532Z,24.53
2018-12-19T16:23:59.033Z,26.27
2018-12-19T16:26:27.524Z,27.23
2018-12-19T16:28:56.027Z,26.67
2018-12-19T16:31:25.213Z,25.60
2018-12-19T16:36:46.270Z,25.73
2018-12-19T16:39:14.759Z,25.17
2018-12-19T16:41:43.209Z,26.27
2018-12-19T16:44:11.673Z,25.27
2018-12-19T16:46:40.076Z,35.47
2018-12-19T16:49:08.569Z,39.70
2018-12-19T16:51:37.310Z,25.50
2018-12-19T16:54:05.828Z,23.27
2018-12-19T16:56:34.432Z,25.53
2018-12-19T16:59:02.864Z,24.83
2018-12-19T17:01:31.368Z,53.53
2018-12-19T17:03:59.946Z,25.40
2018-12-19T17:06:28.408Z,25.00
2018-12-19T17:14:42.417Z,22.17
2018-12-19T17:28:48.979Z,23.27
2018-12-19T17:31:17.447Z,21.53
2018-12-19T17:33:45.890Z,22.07
2018-12-19T17:39:07.131Z,22.47
2018-12-19T17:47:20.579Z,23.00
2018-12-19T17:52:41.747Z,23.27
2018-12-19T17:55:10.235Z,23.10
2018-12-19T18:00:31.764Z,22.53
2018-12-19T18:03:00.186Z,23.40
2018-12-19T18:05:28.655Z,24.23
2018-12-19T18:10:49.079Z,23.03
2018-12-19T18:16:13.210Z,25.70
2018-12-19T18:18:41.639Z,27.37
2018-12-19T18:26:55.746Z,27.97
2018-12-19T18:29:24.313Z,30.87
2018-12-19T18:31:52.775Z,32.17
2018-12-19T18:34:22.885Z,30.60
2018-12-19T18:36:51.365Z,32.10
2018-12-19T18:39:25.919Z,34.10
2018-12-19T18:41:50.338Z,33.10
2018-12-19T18:47:10.734Z,36.00
2018-12-19T18:58:17.032Z,28.70
2018-12-19T19:06:46.599Z,24.60
2018-12-19T19:29:22.843Z,24.53
2018-12-19T19:43:31.292Z,21.47
2018-12-19T20:00:28.200Z,20.00
2018-12-19T20:02:56.623Z,22.97
2018-12-19T20:11:32.183Z,26.37
2018-12-19T20:45:38.699Z,20.00
2018-12-19T20:48:07.159Z,21.63
2018-12-19T20:50:40.483Z,21.57
2018-12-19T21:02:39.762Z,19.47
2018-12-19T21:05:08.295Z,20.23
2018-12-19T21:10:30.132Z,21.87
2018-12-19T21:12:58.595Z,22.37
2018-12-19T21:15:27.058Z,22.67
2018-12-19T21:20:48.571Z,23.27
2018-12-19T21:23:17.039Z,22.33
2018-12-19T21:25:45.461Z,20.20
2018-12-19T21:28:13.906Z,21.00
2018-12-19T21:33:40.934Z,22.33
2018-12-19T21:39:02.181Z,20.00
2018-12-19T21:41:30.756Z,19.90
2018-12-19T21:43:59.318Z,19.53
2018-12-19T21:46:27.796Z,21.13
2018-12-19T21:48:56.334Z,21.37
2018-12-19T21:51:24.798Z,20.43
2018-12-19T21:53:53.235Z,22.70
2018-12-19T21:56:21.701Z,21.23
2018-12-19T21:58:50.136Z,21.10
2018-12-19T22:01:18.774Z,21.37
2018-12-19T22:03:47.192Z,21.70
2018-12-19T22:06:16.035Z,20.40
2018-12-19T22:08:44.591Z,20.13
2018-12-19T22:11:13.227Z,22.03
2018-12-19T22:13:41.769Z,22.53
2018-12-19T22:16:14.431Z,22.47
2018-12-19T22:24:28.572Z,23.30
2018-12-19T22:29:49.768Z,24.83
2018-12-19T22:32:18.590Z,24.03
2018-12-19T22:34:47.043Z,24.77
2018-12-19T22:37:15.638Z,25.77
2018-12-19T22:39:44.140Z,25.17
2018-12-19T22:45:05.181Z,24.37
2018-12-19T22:47:33.675Z,27.70
2018-12-19T22:52:56.714Z,42.83
2018-12-19T22:58:17.782Z,28.23
2018-12-19T23:12:16.907Z,25.33
2018-12-19T23:18:27.410Z,24.90
2018-12-19T23:20:56.358Z,25.50
2018-12-19T23:23:25.024Z,24.93
2018-12-19T23:25:53.570Z,24.23
2018-12-19T23:28:22.134Z,24.30
2018-12-19T23:30:50.694Z,23.60
2018-12-19T23:33:19.208Z,24.53
2018-12-19T23:35:47.748Z,24.83
2018-12-19T23:38:16.218Z,23.67
2018-12-19T23:40:44.720Z,24.47
2018-12-19T23:43:13.587Z,24.70
2018-12-19T23:45:42.192Z,24.77
2018-12-19T23:48:10.813Z,28.27
2018-12-19T23:50:39.401Z,27.03
2018-12-19T23:53:07.984Z,26.60
2018-12-19T23:55:36.436Z,26.27
2018-12-19T23:58:05.037Z,26.43
